Terminal Aerodrome Forecast
Issued by NWS Wilmington, OH

Home | Current Version | Previous Version | Text Only | Print | Product List | Glossary On
Versions: 1 2 3 4 5 6 7 8 9 10 11 12 13 14 15 16 17 18 19 20 21 22
000
FTUS41 KILN 262338
TAFCVG
TAF
KCVG 262338Z 2700/2806 18011KT P6SM SCT250
     FM270900 19012KT P6SM VCSH SCT035 BKN150
      TEMPO 2712/2714 -SHRA BKN022
     FM271400 21015KT P6SM BKN025
     FM271700 23015G22KT P6SM BKN035
     FM272200 25010KT P6SM SCT050
     FM280300 VRB03KT P6SM FEW040 SCT250=

USA.gov is the U.S. government's official web portal to all federal, state and local government web resources and services.